sensor_id;sensor_type;location;lat;lon;timestamp;P1;durP1;ratioP1;P2;durP2;ratioP2
27839;SDS011;15207;42.182;24.308;2022-10-16T00:01:18;20.30;;;8.90;;
27839;SDS011;15207;42.182;24.308;2022-10-16T00:03:46;13.40;;;8.70;;
27839;SDS011;15207;42.182;24.308;2022-10-16T00:06:12;12.45;;;8.00;;
27839;SDS011;15207;42.182;24.308;2022-10-16T00:08:39;12.70;;;7.90;;
27839;SDS011;15207;42.182;24.308;2022-10-16T00:11:09;12.80;;;8.55;;
27839;SDS011;15207;42.182;24.308;2022-10-16T00:13:38;18.30;;;9.10;;
27839;SDS011;15207;42.182;24.308;2022-10-16T00:16:05;15.15;;;9.10;;
27839;SDS011;15207;42.182;24.308;2022-10-16T00:18:32;17.80;;;9.35;;
27839;SDS011;15207;42.182;24.308;2022-10-16T00:21:18;18.70;;;9.45;;
27839;SDS011;15207;42.182;24.308;2022-10-16T00:23:46;19.40;;;9.30;;
27839;SDS011;15207;42.182;24.308;2022-10-16T00:26:12;14.40;;;8.70;;
27839;SDS011;15207;42.182;24.308;2022-10-16T00:28:40;16.45;;;8.90;;
27839;SDS011;15207;42.182;24.308;2022-10-16T00:31:06;19.90;;;10.00;;
27839;SDS011;15207;42.182;24.308;2022-10-16T00:33:35;19.05;;;8.75;;
27839;SDS011;15207;42.182;24.308;2022-10-16T00:36:02;13.93;;;8.43;;
27839;SDS011;15207;42.182;24.308;2022-10-16T00:38:29;15.80;;;8.60;;
27839;SDS011;15207;42.182;24.308;2022-10-16T00:40:55;15.10;;;8.80;;
27839;SDS011;15207;42.182;24.308;2022-10-16T00:43:43;17.10;;;8.90;;
27839;SDS011;15207;42.182;24.308;2022-10-16T00:46:18;15.90;;;9.30;;
27839;SDS011;15207;42.182;24.308;2022-10-16T00:54:09;11.20;;;8.50;;
27839;SDS011;15207;42.182;24.308;2022-10-16T00:56:38;19.13;;;8.65;;
27839;SDS011;15207;42.182;24.308;2022-10-16T01:01:32;15.80;;;8.70;;
27839;SDS011;15207;42.182;24.308;2022-10-16T01:03:58;15.70;;;8.65;;
27839;SDS011;15207;42.182;24.308;2022-10-16T01:14:54;16.30;;;9.60;;
27839;SDS011;15207;42.182;24.308;2022-10-16T01:17:51;16.00;;;9.35;;
27839;SDS011;15207;42.182;24.308;2022-10-16T01:25:29;17.50;;;8.60;;
27839;SDS011;15207;42.182;24.308;2022-10-16T01:28:19;14.95;;;7.80;;
27839;SDS011;15207;42.182;24.308;2022-10-16T01:30:53;11.30;;;8.10;;
27839;SDS011;15207;42.182;24.308;2022-10-16T01:33:24;15.90;;;8.90;;
27839;SDS011;15207;42.182;24.308;2022-10-16T01:35:56;15.80;;;8.40;;
27839;SDS011;15207;42.182;24.308;2022-10-16T01:38:29;15.10;;;7.90;;
27839;SDS011;15207;42.182;24.308;2022-10-16T01:43:53;16.67;;;8.60;;
27839;SDS011;15207;42.182;24.308;2022-10-16T01:46:46;20.10;;;8.43;;
27839;SDS011;15207;42.182;24.308;2022-10-16T01:49:14;12.55;;;8.48;;
27839;SDS011;15207;42.182;24.308;2022-10-16T01:51:41;11.30;;;8.50;;
27839;SDS011;15207;42.182;24.308;2022-10-16T01:54:12;17.35;;;8.55;;
27839;SDS011;15207;42.182;24.308;2022-10-16T01:56:40;12.90;;;8.35;;
27839;SDS011;15207;42.182;24.308;2022-10-16T01:59:11;16.57;;;8.57;;
27839;SDS011;15207;42.182;24.308;2022-10-16T02:04:19;13.73;;;8.02;;
27839;SDS011;15207;42.182;24.308;2022-10-16T02:06:58;13.20;;;7.75;;
27839;SDS011;15207;42.182;24.308;2022-10-16T02:09:24;12.50;;;8.00;;
27839;SDS011;15207;42.182;24.308;2022-10-16T02:11:51;11.40;;;8.23;;
27839;SDS011;15207;42.182;24.308;2022-10-16T02:14:21;12.73;;;8.25;;
27839;SDS011;15207;42.182;24.308;2022-10-16T02:16:49;20.00;;;8.60;;
27839;SDS011;15207;42.182;24.308;2022-10-16T02:19:15;9.93;;;7.47;;
27839;SDS011;15207;42.182;24.308;2022-10-16T02:21:54;18.15;;;8.15;;
27839;SDS011;15207;42.182;24.308;2022-10-16T02:29:35;12.70;;;8.35;;
27839;SDS011;15207;42.182;24.308;2022-10-16T02:32:06;12.07;;;8.27;;
27839;SDS011;15207;42.182;24.308;2022-10-16T02:34:35;13.65;;;8.70;;
27839;SDS011;15207;42.182;24.308;2022-10-16T02:37:03;13.65;;;8.50;;
27839;SDS011;15207;42.182;24.308;2022-10-16T02:39:30;14.40;;;8.70;;
27839;SDS011;15207;42.182;24.308;2022-10-16T02:44:21;13.70;;;7.80;;
27839;SDS011;15207;42.182;24.308;2022-10-16T02:46:47;15.10;;;8.10;;
27839;SDS011;15207;42.182;24.308;2022-10-16T02:49:13;12.53;;;8.23;;
27839;SDS011;15207;42.182;24.308;2022-10-16T02:51:38;15.50;;;8.65;;
27839;SDS011;15207;42.182;24.308;2022-10-16T02:54:04;12.52;;;8.18;;
27839;SDS011;15207;42.182;24.308;2022-10-16T02:56:30;15.75;;;8.55;;
27839;SDS011;15207;42.182;24.308;2022-10-16T02:58:56;11.25;;;8.00;;
27839;SDS011;15207;42.182;24.308;2022-10-16T03:01:22;17.90;;;8.67;;
27839;SDS011;15207;42.182;24.308;2022-10-16T03:03:47;13.10;;;8.70;;
27839;SDS011;15207;42.182;24.308;2022-10-16T03:06:13;16.00;;;8.90;;
27839;SDS011;15207;42.182;24.308;2022-10-16T03:08:39;19.05;;;8.85;;
27839;SDS011;15207;42.182;24.308;2022-10-16T03:11:04;13.90;;;9.30;;
27839;SDS011;15207;42.182;24.308;2022-10-16T03:13:30;16.00;;;9.80;;
27839;SDS011;15207;42.182;24.308;2022-10-16T03:15:55;13.50;;;9.50;;
27839;SDS011;15207;42.182;24.308;2022-10-16T03:20:46;12.60;;;8.00;;
27839;SDS011;15207;42.182;24.308;2022-10-16T03:23:13;12.32;;;8.40;;
27839;SDS011;15207;42.182;24.308;2022-10-16T03:25:39;13.20;;;7.80;;
27839;SDS011;15207;42.182;24.308;2022-10-16T03:28:05;23.87;;;8.60;;
27839;SDS011;15207;42.182;24.308;2022-10-16T03:30:31;14.40;;;8.50;;
27839;SDS011;15207;42.182;24.308;2022-10-16T03:32:56;14.60;;;8.60;;
27839;SDS011;15207;42.182;24.308;2022-10-16T03:35:22;14.80;;;8.00;;
27839;SDS011;15207;42.182;24.308;2022-10-16T03:37:49;15.30;;;8.27;;
27839;SDS011;15207;42.182;24.308;2022-10-16T03:40:15;15.05;;;8.27;;
27839;SDS011;15207;42.182;24.308;2022-10-16T03:42:44;13.63;;;8.47;;
27839;SDS011;15207;42.182;24.308;2022-10-16T03:45:10;14.73;;;8.50;;
27839;SDS011;15207;42.182;24.308;2022-10-16T03:50:01;15.67;;;9.23;;
27839;SDS011;15207;42.182;24.308;2022-10-16T03:54:53;15.80;;;9.75;;
27839;SDS011;15207;42.182;24.308;2022-10-16T03:57:18;18.30;;;10.30;;
27839;SDS011;15207;42.182;24.308;2022-10-16T03:59:45;15.50;;;8.80;;
27839;SDS011;15207;42.182;24.308;2022-10-16T04:02:11;21.10;;;9.20;;
27839;SDS011;15207;42.182;24.308;2022-10-16T04:04:37;16.80;;;8.90;;
27839;SDS011;15207;42.182;24.308;2022-10-16T04:07:03;15.15;;;8.25;;
27839;SDS011;15207;42.182;24.308;2022-10-16T04:09:28;18.00;;;8.80;;
27839;SDS011;15207;42.182;24.308;2022-10-16T04:11:54;16.10;;;8.18;;
27839;SDS011;15207;42.182;24.308;2022-10-16T04:14:20;13.70;;;8.40;;
27839;SDS011;15207;42.182;24.308;2022-10-16T04:16:46;17.27;;;8.88;;
27839;SDS011;15207;42.182;24.308;2022-10-16T04:19:11;20.73;;;10.13;;
27839;SDS011;15207;42.182;24.308;2022-10-16T04:24:02;29.75;;;10.90;;
27839;SDS011;15207;42.182;24.308;2022-10-16T04:26:29;19.95;;;10.13;;
27839;SDS011;15207;42.182;24.308;2022-10-16T04:28:55;16.15;;;9.93;;
27839;SDS011;15207;42.182;24.308;2022-10-16T04:31:21;16.90;;;10.40;;
27839;SDS011;15207;42.182;24.308;2022-10-16T04:33:46;16.40;;;9.80;;
27839;SDS011;15207;42.182;24.308;2022-10-16T04:36:12;15.40;;;9.23;;
27839;SDS011;15207;42.182;24.308;2022-10-16T04:38:38;28.10;;;11.90;;
27839;SDS011;15207;42.182;24.308;2022-10-16T04:41:05;14.70;;;9.30;;
27839;SDS011;15207;42.182;24.308;2022-10-16T04:43:31;20.90;;;10.40;;
27839;SDS011;15207;42.182;24.308;2022-10-16T04:45:57;18.67;;;9.35;;
27839;SDS011;15207;42.182;24.308;2022-10-16T04:48:23;24.20;;;11.13;;
27839;SDS011;15207;42.182;24.308;2022-10-16T04:50:49;17.80;;;9.85;;
27839;SDS011;15207;42.182;24.308;2022-10-16T04:53:14;14.77;;;9.15;;
27839;SDS011;15207;42.182;24.308;2022-10-16T04:55:41;15.00;;;9.37;;
27839;SDS011;15207;42.182;24.308;2022-10-16T04:58:07;15.68;;;9.15;;
27839;SDS011;15207;42.182;24.308;2022-10-16T05:00:33;17.30;;;9.00;;
27839;SDS011;15207;42.182;24.308;2022-10-16T05:03:00;21.23;;;9.77;;
27839;SDS011;15207;42.182;24.308;2022-10-16T05:05:27;15.77;;;8.55;;
27839;SDS011;15207;42.182;24.308;2022-10-16T05:07:53;15.40;;;9.27;;
27839;SDS011;15207;42.182;24.308;2022-10-16T05:10:19;18.93;;;9.50;;
27839;SDS011;15207;42.182;24.308;2022-10-16T05:12:45;11.50;;;8.50;;
27839;SDS011;15207;42.182;24.308;2022-10-16T05:15:11;16.75;;;8.98;;
27839;SDS011;15207;42.182;24.308;2022-10-16T05:17:37;15.90;;;9.30;;
27839;SDS011;15207;42.182;24.308;2022-10-16T05:20:03;17.25;;;8.90;;
27839;SDS011;15207;42.182;24.308;2022-10-16T05:22:29;17.70;;;9.60;;
27839;SDS011;15207;42.182;24.308;2022-10-16T05:24:54;17.17;;;9.47;;
27839;SDS011;15207;42.182;24.308;2022-10-16T05:27:20;16.30;;;9.30;;
27839;SDS011;15207;42.182;24.308;2022-10-16T05:29:46;16.90;;;9.20;;
27839;SDS011;15207;42.182;24.308;2022-10-16T05:32:12;16.50;;;9.70;;
27839;SDS011;15207;42.182;24.308;2022-10-16T05:37:05;16.17;;;10.07;;
27839;SDS011;15207;42.182;24.308;2022-10-16T05:39:31;17.90;;;10.90;;
27839;SDS011;15207;42.182;24.308;2022-10-16T05:41:56;16.40;;;10.80;;
27839;SDS011;15207;42.182;24.308;2022-10-16T05:44:22;18.13;;;11.57;;
27839;SDS011;15207;42.182;24.308;2022-10-16T05:46:47;21.10;;;10.50;;
27839;SDS011;15207;42.182;24.308;2022-10-16T05:49:13;16.97;;;11.10;;
27839;SDS011;15207;42.182;24.308;2022-10-16T05:51:39;23.60;;;10.60;;
27839;SDS011;15207;42.182;24.308;2022-10-16T05:56:30;22.05;;;9.65;;
27839;SDS011;15207;42.182;24.308;2022-10-16T05:58:56;15.33;;;9.97;;
27839;SDS011;15207;42.182;24.308;2022-10-16T06:01:21;18.30;;;9.90;;
27839;SDS011;15207;42.182;24.308;2022-10-16T06:03:49;14.90;;;9.70;;
27839;SDS011;15207;42.182;24.308;2022-10-16T06:06:17;18.17;;;9.15;;
27839;SDS011;15207;42.182;24.308;2022-10-16T06:08:48;19.40;;;9.23;;
27839;SDS011;15207;42.182;24.308;2022-10-16T06:11:15;12.65;;;9.35;;
27839;SDS011;15207;42.182;24.308;2022-10-16T06:13:43;16.00;;;8.35;;
27839;SDS011;15207;42.182;24.308;2022-10-16T06:16:11;19.93;;;9.07;;
27839;SDS011;15207;42.182;24.308;2022-10-16T06:18:38;17.60;;;8.00;;
27839;SDS011;15207;42.182;24.308;2022-10-16T06:21:23;17.27;;;8.13;;
27839;SDS011;15207;42.182;24.308;2022-10-16T06:23:50;13.00;;;7.75;;
27839;SDS011;15207;42.182;24.308;2022-10-16T06:26:17;12.40;;;7.20;;
27839;SDS011;15207;42.182;24.308;2022-10-16T06:28:44;13.20;;;8.00;;
27839;SDS011;15207;42.182;24.308;2022-10-16T06:31:10;10.50;;;8.00;;
27839;SDS011;15207;42.182;24.308;2022-10-16T06:36:13;12.95;;;7.55;;
27839;SDS011;15207;42.182;24.308;2022-10-16T06:38:40;14.00;;;7.65;;
27839;SDS011;15207;42.182;24.308;2022-10-16T06:43:33;10.32;;;7.80;;
27839;SDS011;15207;42.182;24.308;2022-10-16T06:46:02;11.45;;;7.90;;
27839;SDS011;15207;42.182;24.308;2022-10-16T06:48:29;18.58;;;8.32;;
27839;SDS011;15207;42.182;24.308;2022-10-16T06:50:56;14.18;;;7.82;;
27839;SDS011;15207;42.182;24.308;2022-10-16T06:58:20;13.17;;;7.57;;
27839;SDS011;15207;42.182;24.308;2022-10-16T07:00:45;11.13;;;7.72;;
27839;SDS011;15207;42.182;24.308;2022-10-16T07:03:11;11.70;;;7.20;;
27839;SDS011;15207;42.182;24.308;2022-10-16T07:10:33;12.50;;;7.65;;
27839;SDS011;15207;42.182;24.308;2022-10-16T07:12:59;15.00;;;8.90;;
27839;SDS011;15207;42.182;24.308;2022-10-16T07:15:25;15.15;;;10.15;;
27839;SDS011;15207;42.182;24.308;2022-10-16T07:17:51;13.80;;;9.40;;
27839;SDS011;15207;42.182;24.308;2022-10-16T07:22:42;10.00;;;7.82;;
27839;SDS011;15207;42.182;24.308;2022-10-16T07:25:08;12.15;;;7.72;;
27839;SDS011;15207;42.182;24.308;2022-10-16T07:27:34;13.35;;;8.00;;
27839;SDS011;15207;42.182;24.308;2022-10-16T07:29:59;12.18;;;7.07;;
27839;SDS011;15207;42.182;24.308;2022-10-16T07:32:25;14.90;;;7.80;;
27839;SDS011;15207;42.182;24.308;2022-10-16T07:34:51;12.60;;;8.15;;
27839;SDS011;15207;42.182;24.308;2022-10-16T07:37:17;11.50;;;6.90;;
27839;SDS011;15207;42.182;24.308;2022-10-16T07:39:43;12.30;;;7.00;;
27839;SDS011;15207;42.182;24.308;2022-10-16T07:42:09;12.00;;;7.00;;
27839;SDS011;15207;42.182;24.308;2022-10-16T07:44:35;11.55;;;7.30;;
27839;SDS011;15207;42.182;24.308;2022-10-16T07:47:01;11.60;;;7.20;;
27839;SDS011;15207;42.182;24.308;2022-10-16T07:49:27;12.80;;;6.50;;
27839;SDS011;15207;42.182;24.308;2022-10-16T07:51:52;16.45;;;7.45;;
27839;SDS011;15207;42.182;24.308;2022-10-16T07:54:18;12.83;;;6.93;;
27839;SDS011;15207;42.182;24.308;2022-10-16T07:56:44;10.27;;;5.93;;
27839;SDS011;15207;42.182;24.308;2022-10-16T07:59:09;11.80;;;6.50;;
27839;SDS011;15207;42.182;24.308;2022-10-16T08:01:36;13.85;;;6.65;;
27839;SDS011;15207;42.182;24.308;2022-10-16T08:04:01;15.25;;;7.00;;
27839;SDS011;15207;42.182;24.308;2022-10-16T08:06:27;10.50;;;6.15;;
27839;SDS011;15207;42.182;24.308;2022-10-16T08:08:52;12.90;;;5.80;;
27839;SDS011;15207;42.182;24.308;2022-10-16T08:11:18;12.80;;;6.28;;
27839;SDS011;15207;42.182;24.308;2022-10-16T08:13:44;12.90;;;7.20;;
27839;SDS011;15207;42.182;24.308;2022-10-16T08:16:09;14.30;;;7.10;;
27839;SDS011;15207;42.182;24.308;2022-10-16T08:18:36;12.95;;;5.93;;
27839;SDS011;15207;42.182;24.308;2022-10-16T08:21:03;15.20;;;6.75;;
27839;SDS011;15207;42.182;24.308;2022-10-16T08:23:30;12.15;;;6.95;;
27839;SDS011;15207;42.182;24.308;2022-10-16T08:26:01;11.25;;;6.25;;
27839;SDS011;15207;42.182;24.308;2022-10-16T08:31:04;13.60;;;6.70;;
27839;SDS011;15207;42.182;24.308;2022-10-16T08:33:38;12.05;;;6.05;;
27839;SDS011;15207;42.182;24.308;2022-10-16T08:36:05;13.05;;;6.05;;
27839;SDS011;15207;42.182;24.308;2022-10-16T08:38:31;9.10;;;5.70;;
27839;SDS011;15207;42.182;24.308;2022-10-16T08:46:56;11.17;;;5.60;;
27839;SDS011;15207;42.182;24.308;2022-10-16T08:49:29;10.40;;;6.07;;
27839;SDS011;15207;42.182;24.308;2022-10-16T08:51:56;13.57;;;6.10;;
27839;SDS011;15207;42.182;24.308;2022-10-16T08:54:35;7.67;;;5.53;;
27839;SDS011;15207;42.182;24.308;2022-10-16T08:57:09;14.95;;;6.10;;
27839;SDS011;15207;42.182;24.308;2022-10-16T08:59:38;11.05;;;5.32;;
27839;SDS011;15207;42.182;24.308;2022-10-16T09:02:13;12.52;;;5.40;;
27839;SDS011;15207;42.182;24.308;2022-10-16T09:05:06;12.35;;;5.28;;
27839;SDS011;15207;42.182;24.308;2022-10-16T09:07:52;9.20;;;5.05;;
27839;SDS011;15207;42.182;24.308;2022-10-16T09:15:53;13.35;;;5.90;;
27839;SDS011;15207;42.182;24.308;2022-10-16T09:18:29;9.10;;;5.40;;
27839;SDS011;15207;42.182;24.308;2022-10-16T09:21:09;14.80;;;5.90;;
27839;SDS011;15207;42.182;24.308;2022-10-16T09:23:42;9.05;;;5.45;;
27839;SDS011;15207;42.182;24.308;2022-10-16T09:26:09;9.73;;;5.70;;
27839;SDS011;15207;42.182;24.308;2022-10-16T09:28:40;12.05;;;5.55;;
27839;SDS011;15207;42.182;24.308;2022-10-16T09:31:10;8.60;;;5.40;;
27839;SDS011;15207;42.182;24.308;2022-10-16T09:33:40;9.75;;;4.90;;
27839;SDS011;15207;42.182;24.308;2022-10-16T09:36:08;13.00;;;6.10;;
27839;SDS011;15207;42.182;24.308;2022-10-16T09:38:35;9.90;;;5.80;;
27839;SDS011;15207;42.182;24.308;2022-10-16T09:41:14;12.80;;;5.95;;
27839;SDS011;15207;42.182;24.308;2022-10-16T09:43:56;9.23;;;5.30;;
27839;SDS011;15207;42.182;24.308;2022-10-16T09:48:55;10.07;;;4.55;;
27839;SDS011;15207;42.182;24.308;2022-10-16T09:56:29;9.85;;;5.20;;
27839;SDS011;15207;42.182;24.308;2022-10-16T09:59:03;9.87;;;5.30;;
27839;SDS011;15207;42.182;24.308;2022-10-16T10:01:40;12.70;;;5.03;;
27839;SDS011;15207;42.182;24.308;2022-10-16T10:04:09;9.70;;;5.10;;
27839;SDS011;15207;42.182;24.308;2022-10-16T10:06:37;8.63;;;4.57;;
27839;SDS011;15207;42.182;24.308;2022-10-16T10:12:05;7.95;;;4.38;;
27839;SDS011;15207;42.182;24.308;2022-10-16T10:14:52;12.77;;;5.13;;
27839;SDS011;15207;42.182;24.308;2022-10-16T10:17:21;10.33;;;5.00;;
27839;SDS011;15207;42.182;24.308;2022-10-16T10:19:52;7.88;;;4.93;;
27839;SDS011;15207;42.182;24.308;2022-10-16T10:38:49;8.20;;;3.90;;
27839;SDS011;15207;42.182;24.308;2022-10-16T10:46:57;8.95;;;4.20;;
27839;SDS011;15207;42.182;24.308;2022-10-16T10:52:58;8.20;;;4.80;;
27839;SDS011;15207;42.182;24.308;2022-10-16T10:55:37;8.80;;;4.90;;
27839;SDS011;15207;42.182;24.308;2022-10-16T11:03:27;11.13;;;4.32;;
27839;SDS011;15207;42.182;24.308;2022-10-16T11:06:25;8.95;;;4.35;;
27839;SDS011;15207;42.182;24.308;2022-10-16T11:11:33;7.50;;;4.40;;
27839;SDS011;15207;42.182;24.308;2022-10-16T11:14:10;10.03;;;4.00;;
27839;SDS011;15207;42.182;24.308;2022-10-16T11:22:01;9.50;;;4.50;;
27839;SDS011;15207;42.182;24.308;2022-10-16T11:32:38;6.65;;;3.95;;
27839;SDS011;15207;42.182;24.308;2022-10-16T11:35:19;12.23;;;4.13;;
27839;SDS011;15207;42.182;24.308;2022-10-16T11:37:50;7.90;;;3.80;;
27839;SDS011;15207;42.182;24.308;2022-10-16T11:40:23;9.80;;;4.40;;
27839;SDS011;15207;42.182;24.308;2022-10-16T11:43:10;6.50;;;4.00;;
27839;SDS011;15207;42.182;24.308;2022-10-16T11:45:45;5.70;;;3.80;;
27839;SDS011;15207;42.182;24.308;2022-10-16T11:50:53;7.55;;;3.70;;
27839;SDS011;15207;42.182;24.308;2022-10-16T11:53:37;9.30;;;3.40;;
27839;SDS011;15207;42.182;24.308;2022-10-16T11:56:04;11.63;;;4.00;;
27839;SDS011;15207;42.182;24.308;2022-10-16T12:04:23;7.15;;;4.20;;
27839;SDS011;15207;42.182;24.308;2022-10-16T12:07:11;6.25;;;3.55;;
27839;SDS011;15207;42.182;24.308;2022-10-16T12:09:45;7.30;;;4.10;;
27839;SDS011;15207;42.182;24.308;2022-10-16T12:12:28;8.95;;;3.90;;
27839;SDS011;15207;42.182;24.308;2022-10-16T12:17:37;7.35;;;4.10;;
27839;SDS011;15207;42.182;24.308;2022-10-16T12:25:53;7.20;;;4.00;;
27839;SDS011;15207;42.182;24.308;2022-10-16T12:28:25;7.55;;;4.00;;
27839;SDS011;15207;42.182;24.308;2022-10-16T12:30:54;9.57;;;3.60;;
27839;SDS011;15207;42.182;24.308;2022-10-16T12:35:52;8.40;;;4.00;;
27839;SDS011;15207;42.182;24.308;2022-10-16T12:38:26;5.40;;;3.70;;
27839;SDS011;15207;42.182;24.308;2022-10-16T12:41:08;5.70;;;3.70;;
27839;SDS011;15207;42.182;24.308;2022-10-16T12:48:33;7.35;;;3.78;;
27839;SDS011;15207;42.182;24.308;2022-10-16T12:51:09;7.10;;;3.30;;
27839;SDS011;15207;42.182;24.308;2022-10-16T13:04:51;9.55;;;2.90;;
27839;SDS011;15207;42.182;24.308;2022-10-16T13:18:59;4.65;;;3.30;;
27839;SDS011;15207;42.182;24.308;2022-10-16T13:26:40;9.80;;;3.50;;
27839;SDS011;15207;42.182;24.308;2022-10-16T13:31:46;6.95;;;2.85;;
27839;SDS011;15207;42.182;24.308;2022-10-16T13:34:20;13.73;;;3.00;;
27839;SDS011;15207;42.182;24.308;2022-10-16T13:36:48;11.40;;;2.80;;
27839;SDS011;15207;42.182;24.308;2022-10-16T13:42:02;4.05;;;2.40;;
27839;SDS011;15207;42.182;24.308;2022-10-16T13:44:40;5.78;;;2.88;;
27839;SDS011;15207;42.182;24.308;2022-10-16T13:47:12;8.60;;;3.30;;
27839;SDS011;15207;42.182;24.308;2022-10-16T13:52:23;5.00;;;3.10;;
27839;SDS011;15207;42.182;24.308;2022-10-16T13:54:49;7.05;;;3.22;;
27839;SDS011;15207;42.182;24.308;2022-10-16T13:57:16;4.70;;;3.30;;
27839;SDS011;15207;42.182;24.308;2022-10-16T14:02:17;4.70;;;2.80;;
27839;SDS011;15207;42.182;24.308;2022-10-16T14:04:45;8.95;;;3.45;;
27839;SDS011;15207;42.182;24.308;2022-10-16T14:07:17;4.10;;;2.80;;
27839;SDS011;15207;42.182;24.308;2022-10-16T14:09:48;5.70;;;3.40;;
27839;SDS011;15207;42.182;24.308;2022-10-16T14:19:48;4.80;;;2.85;;
27839;SDS011;15207;42.182;24.308;2022-10-16T14:22:25;5.38;;;2.78;;
27839;SDS011;15207;42.182;24.308;2022-10-16T14:24:55;8.00;;;3.40;;
27839;SDS011;15207;42.182;24.308;2022-10-16T14:27:34;5.75;;;3.20;;
27839;SDS011;15207;42.182;24.308;2022-10-16T14:30:08;9.15;;;2.90;;
27839;SDS011;15207;42.182;24.308;2022-10-16T14:32:39;7.00;;;3.55;;
27839;SDS011;15207;42.182;24.308;2022-10-16T14:35:26;8.52;;;3.20;;
27839;SDS011;15207;42.182;24.308;2022-10-16T14:37:54;6.30;;;3.10;;
27839;SDS011;15207;42.182;24.308;2022-10-16T14:40:23;6.95;;;3.30;;
27839;SDS011;15207;42.182;24.308;2022-10-16T14:42:52;6.95;;;2.90;;
27839;SDS011;15207;42.182;24.308;2022-10-16T14:45:19;8.95;;;2.92;;
27839;SDS011;15207;42.182;24.308;2022-10-16T14:47:51;7.20;;;3.40;;
27839;SDS011;15207;42.182;24.308;2022-10-16T14:50:19;8.52;;;3.25;;
27839;SDS011;15207;42.182;24.308;2022-10-16T14:55:10;7.10;;;3.53;;
27839;SDS011;15207;42.182;24.308;2022-10-16T14:57:37;6.70;;;3.45;;
27839;SDS011;15207;42.182;24.308;2022-10-16T15:00:08;9.10;;;3.70;;
27839;SDS011;15207;42.182;24.308;2022-10-16T15:02:39;10.20;;;3.60;;
27839;SDS011;15207;42.182;24.308;2022-10-16T15:05:15;8.95;;;3.63;;
27839;SDS011;15207;42.182;24.308;2022-10-16T15:07:43;7.60;;;3.80;;
27839;SDS011;15207;42.182;24.308;2022-10-16T15:10:11;7.18;;;4.22;;
27839;SDS011;15207;42.182;24.308;2022-10-16T15:12:41;8.65;;;4.03;;
27839;SDS011;15207;42.182;24.308;2022-10-16T15:17:48;7.45;;;4.45;;
27839;SDS011;15207;42.182;24.308;2022-10-16T15:22:42;7.70;;;4.05;;
27839;SDS011;15207;42.182;24.308;2022-10-16T15:27:57;11.55;;;5.50;;
27839;SDS011;15207;42.182;24.308;2022-10-16T15:30:24;11.15;;;5.40;;
27839;SDS011;15207;42.182;24.308;2022-10-16T15:32:50;21.95;;;5.95;;
27839;SDS011;15207;42.182;24.308;2022-10-16T15:35:15;14.85;;;6.30;;
27839;SDS011;15207;42.182;24.308;2022-10-16T15:40:08;18.25;;;6.25;;
27839;SDS011;15207;42.182;24.308;2022-10-16T15:42:35;12.15;;;6.75;;
27839;SDS011;15207;42.182;24.308;2022-10-16T15:45:00;24.15;;;6.75;;
27839;SDS011;15207;42.182;24.308;2022-10-16T15:47:26;22.23;;;7.22;;
27839;SDS011;15207;42.182;24.308;2022-10-16T15:49:52;18.20;;;6.55;;
27839;SDS011;15207;42.182;24.308;2022-10-16T15:52:17;12.10;;;7.20;;
27839;SDS011;15207;42.182;24.308;2022-10-16T15:54:43;18.10;;;7.20;;
27839;SDS011;15207;42.182;24.308;2022-10-16T15:57:09;21.42;;;7.25;;
27839;SDS011;15207;42.182;24.308;2022-10-16T15:59:34;17.60;;;7.63;;
27839;SDS011;15207;42.182;24.308;2022-10-16T16:02:00;24.60;;;8.20;;
27839;SDS011;15207;42.182;24.308;2022-10-16T16:04:25;17.20;;;7.38;;
27839;SDS011;15207;42.182;24.308;2022-10-16T16:06:51;15.70;;;6.45;;
27839;SDS011;15207;42.182;24.308;2022-10-16T16:11:42;27.77;;;8.60;;
27839;SDS011;15207;42.182;24.308;2022-10-16T16:14:14;28.70;;;12.30;;
27839;SDS011;15207;42.182;24.308;2022-10-16T16:16:41;24.75;;;11.75;;
27839;SDS011;15207;42.182;24.308;2022-10-16T16:19:07;21.40;;;9.70;;
27839;SDS011;15207;42.182;24.308;2022-10-16T16:24:00;23.33;;;10.35;;
27839;SDS011;15207;42.182;24.308;2022-10-16T16:26:32;20.30;;;11.10;;
27839;SDS011;15207;42.182;24.308;2022-10-16T16:29:01;28.93;;;14.83;;
27839;SDS011;15207;42.182;24.308;2022-10-16T16:31:29;31.90;;;15.10;;
27839;SDS011;15207;42.182;24.308;2022-10-16T16:33:56;30.05;;;12.35;;
27839;SDS011;15207;42.182;24.308;2022-10-16T16:36:23;25.25;;;9.50;;
27839;SDS011;15207;42.182;24.308;2022-10-16T16:38:49;23.30;;;8.00;;
27839;SDS011;15207;42.182;24.308;2022-10-16T16:41:17;25.00;;;9.05;;
27839;SDS011;15207;42.182;24.308;2022-10-16T16:43:47;19.50;;;7.95;;
27839;SDS011;15207;42.182;24.308;2022-10-16T16:46:13;16.30;;;7.30;;
27839;SDS011;15207;42.182;24.308;2022-10-16T16:51:07;22.13;;;7.20;;
27839;SDS011;15207;42.182;24.308;2022-10-16T16:53:35;18.90;;;7.60;;
27839;SDS011;15207;42.182;24.308;2022-10-16T16:58:31;20.80;;;6.80;;
27839;SDS011;15207;42.182;24.308;2022-10-16T17:00:57;17.20;;;8.00;;
27839;SDS011;15207;42.182;24.308;2022-10-16T17:03:29;15.32;;;8.43;;
27839;SDS011;15207;42.182;24.308;2022-10-16T17:06:03;25.20;;;10.00;;
27839;SDS011;15207;42.182;24.308;2022-10-16T17:08:33;32.70;;;9.40;;
27839;SDS011;15207;42.182;24.308;2022-10-16T17:11:00;22.77;;;8.32;;
27839;SDS011;15207;42.182;24.308;2022-10-16T17:13:27;16.40;;;7.00;;
27839;SDS011;15207;42.182;24.308;2022-10-16T17:15:55;8.93;;;5.70;;
27839;SDS011;15207;42.182;24.308;2022-10-16T17:18:21;14.75;;;5.60;;
27839;SDS011;15207;42.182;24.308;2022-10-16T17:20:49;12.70;;;5.40;;
27839;SDS011;15207;42.182;24.308;2022-10-16T17:23:16;10.52;;;4.72;;
27839;SDS011;15207;42.182;24.308;2022-10-16T17:25:43;7.05;;;4.35;;
27839;SDS011;15207;42.182;24.308;2022-10-16T17:28:10;14.30;;;4.90;;
27839;SDS011;15207;42.182;24.308;2022-10-16T17:30:40;9.10;;;4.70;;
27839;SDS011;15207;42.182;24.308;2022-10-16T17:33:07;7.75;;;4.85;;
27839;SDS011;15207;42.182;24.308;2022-10-16T17:38:06;7.65;;;4.80;;
27839;SDS011;15207;42.182;24.308;2022-10-16T17:42:58;11.40;;;5.68;;
27839;SDS011;15207;42.182;24.308;2022-10-16T17:45:24;14.60;;;7.70;;
27839;SDS011;15207;42.182;24.308;2022-10-16T17:47:51;18.52;;;8.90;;
27839;SDS011;15207;42.182;24.308;2022-10-16T17:50:17;19.45;;;8.95;;
27839;SDS011;15207;42.182;24.308;2022-10-16T17:52:43;19.70;;;9.40;;
27839;SDS011;15207;42.182;24.308;2022-10-16T17:55:09;15.18;;;8.95;;
27839;SDS011;15207;42.182;24.308;2022-10-16T17:57:34;17.30;;;8.88;;
27839;SDS011;15207;42.182;24.308;2022-10-16T18:02:29;20.95;;;10.15;;
27839;SDS011;15207;42.182;24.308;2022-10-16T18:04:55;26.05;;;10.77;;
27839;SDS011;15207;42.182;24.308;2022-10-16T18:07:21;17.60;;;10.20;;
27839;SDS011;15207;42.182;24.308;2022-10-16T18:09:47;19.40;;;11.05;;
27839;SDS011;15207;42.182;24.308;2022-10-16T18:12:13;19.80;;;11.15;;
27839;SDS011;15207;42.182;24.308;2022-10-16T18:14:39;24.60;;;12.63;;
27839;SDS011;15207;42.182;24.308;2022-10-16T18:17:05;23.80;;;12.00;;
27839;SDS011;15207;42.182;24.308;2022-10-16T18:19:31;23.38;;;12.40;;
27839;SDS011;15207;42.182;24.308;2022-10-16T18:21:57;25.90;;;12.60;;
27839;SDS011;15207;42.182;24.308;2022-10-16T18:26:49;25.45;;;12.50;;
27839;SDS011;15207;42.182;24.308;2022-10-16T18:29:20;32.90;;;12.50;;
27839;SDS011;15207;42.182;24.308;2022-10-16T18:31:50;25.73;;;12.95;;
27839;SDS011;15207;42.182;24.308;2022-10-16T18:34:17;40.40;;;14.10;;